Time;durP1;ratioP1;P1;durP2;ratioP2;P2;SDS_P1;SDS_P2;PMS_P1;PMS_P2;Temp;Humidity;BMP_temperature;BMP_pressure;BME280_temperature;BME280_humidity;BME280_pressure;Samples;Min_cycle;Max_cycle;Signal;HPM_P1;HPM_P2
2023/05/01 00:01:48;;;;;;;;;;;;;;;;;;5032579;28;20407;-68
2023/05/01 00:04:15;;;;;;;;;;;;;;;;;;5050675;28;19928;-67
2023/05/01 00:06:43;;;;;;;;;;;;;;;;;;5033459;28;20020;-68
2023/05/01 00:09:10;;;;;;;;;;;;;;;;;;5052751;28;19932;-67
2023/05/01 00:11:37;;;;;;;;;;;;;;;;;;5034097;28;20445;-68
2023/05/01 00:14:04;;;;;;;;;;;;;;;;;;5032100;28;19924;-67
2023/05/01 00:16:31;;;;;;;;;;;;;;;;;;5034846;28;19925;-67
2023/05/01 00:18:58;;;;;;;;;;;;;;;;;;5032698;28;20404;-67
2023/05/01 00:21:27;;;;;;;;;;;;;;;;;;5028459;28;19979;-67
2023/05/01 00:23:54;;;;;;;;;;;;;;;;;;5035050;28;19932;-67
2023/05/01 00:26:21;;;;;;;;;;;;;;;;;;5029906;28;19925;-67
2023/05/01 00:28:49;;;;;;;;;;;;;;;;;;5029718;28;19940;-67
2023/05/01 00:31:17;;;;;;;;;;;;;;;;;;5035108;28;20558;-67
2023/05/01 00:33:44;;;;;;;;;;;;;;;;;;5030558;28;20339;-67
2023/05/01 00:36:11;;;;;;;;;;;;;;;;;;5032224;28;19975;-67
2023/05/01 00:38:38;;;;;;;;;;;;;;;;;;5043541;28;19975;-67
2023/05/01 00:41:05;;;;;;;;;;;;;;;;;;5035014;28;19925;-67
2023/05/01 00:43:32;;;;;;;;;;;;;;;;;;5044874;28;19929;-67
2023/05/01 00:46:00;;;;;;;;;;;;;;;;;;5024302;28;19983;-67
2023/05/01 00:48:27;;;;;;;;;;;;;;;;;;5032796;28;19925;-67
2023/05/01 00:50:54;;;;;;;;;;;;;;;;;;5029816;28;19924;-68
2023/05/01 00:53:21;;;;;;;;;;;;;;;;;;5027426;28;19937;-68
2023/05/01 00:55:48;;;;;;;;;;;;;;;;;;5030626;28;19929;-66
2023/05/01 00:58:15;;;;;;;;;;;;;;;;;;5031611;28;19986;-68
2023/05/01 01:00:42;;;;;;;;;;;;;;;;;;5031469;28;19932;-68
2023/05/01 01:03:10;;;;;;;;;;;;;;;;;;5034865;28;19932;-67
2023/05/01 01:05:37;;;;;;;;;;;;;;;;;;5028379;28;20473;-67
2023/05/01 01:08:05;;;;;;;;;;;;;;;;;;5025622;28;19925;-66
2023/05/01 01:10:32;;;;;;;;;;;;;;;;;;5022184;28;19925;-68
2023/05/01 01:12:59;;;;;;;;;;;;;;;;;;5030881;28;19932;-67
2023/05/01 01:15:27;;;;;;;;;;;;;;;;;;5031748;28;19931;-67
2023/05/01 01:17:54;;;;;;;;;;;;;;;;;;5032614;28;20299;-67
2023/05/01 01:20:22;;;;;;;;;;;;;;;;;;5027435;28;19930;-68
2023/05/01 01:22:49;;;;;;;;;;;;;;;;;;5030051;28;20362;-67
2023/05/01 01:25:16;;;;;;;;;;;;;;;;;;5034397;28;19924;-68
2023/05/01 01:27:43;;;;;;;;;;;;;;;;;;5028655;28;19929;-67
2023/05/01 01:30:10;;;;;;;;;;;;;;;;;;5034585;28;19925;-67
2023/05/01 01:32:37;;;;;;;;;;;;;;;;;;5031707;28;19925;-67
2023/05/01 01:35:04;;;;;;;;;;;;;;;;;;5029306;28;19960;-67
2023/05/01 01:37:31;;;;;;;;;;;;;;;;;;5031161;28;19924;-67
2023/05/01 01:39:58;;;;;;;;;;;;;;;;;;5024838;28;19925;-67
2023/05/01 01:42:26;;;;;;;;;;;;;;;;;;5026963;28;20342;-67
2023/05/01 01:44:53;;;;;;;;;;;;;;;;;;5034003;28;20123;-68
2023/05/01 01:47:20;;;;;;;;;;;;;;;;;;5031269;28;19929;-66
2023/05/01 01:49:48;;;;;;;;;;;;;;;;;;5032370;28;19925;-68
2023/05/01 01:52:15;;;;;;;;;;;;;;;;;;5028742;28;20011;-67
2023/05/01 01:54:42;;;;;;;;;;;;;;;;;;5029437;28;19924;-67
2023/05/01 01:57:10;;;;;;;;;;;;;;;;;;5049353;28;19962;-67
2023/05/01 01:59:37;;;;;;;;;;;;;;;;;;5022994;28;19924;-68
2023/05/01 02:02:04;;;;;;;;;;;;;;;;;;5026540;28;20400;-68
2023/05/01 02:04:31;;;;;;;;;;;;;;;;;;5031472;28;19925;-67
2023/05/01 02:06:58;;;;;;;;;;;;;;;;;;5028261;28;19952;-67
2023/05/01 02:09:25;;;;;;;;;;;;;;;;;;5033624;28;19925;-67
2023/05/01 02:11:52;;;;;;;;;;;;;;;;;;5033912;28;19925;-67
2023/05/01 02:14:21;;;;;;;;;;;;;;;;;;5029195;28;19932;-67
2023/05/01 02:16:48;;;;;;;;;;;;;;;;;;5028620;28;19924;-67
2023/05/01 02:19:15;;;;;;;;;;;;;;;;;;5031410;28;19932;-68
2023/05/01 02:21:42;;;;;;;;;;;;;;;;;;5028607;28;19925;-68
2023/05/01 02:24:09;;;;;;;;;;;;;;;;;;5032986;28;20053;-67
2023/05/01 02:26:36;;;;;;;;;;;;;;;;;;5027960;28;19925;-68
2023/05/01 02:29:06;;;;;;;;;;;;;;;;;;5033652;28;19925;-67
2023/05/01 02:31:34;;;;;;;;;;;;;;;;;;5029427;28;19925;-67
2023/05/01 02:34:01;;;;;;;;;;;;;;;;;;5029961;28;19924;-67
2023/05/01 02:36:28;;;;;;;;;;;;;;;;;;5033209;28;19924;-67
2023/05/01 02:38:55;;;;;;;;;;;;;;;;;;5030903;28;20364;-67
2023/05/01 02:41:22;;;;;;;;;;;;;;;;;;5033322;28;20055;-66
2023/05/01 02:43:50;;;;;;;;;;;;;;;;;;5049953;28;20307;-67
2023/05/01 02:46:17;;;;;;;;;;;;;;;;;;5029040;28;19925;-67
2023/05/01 02:48:44;;;;;;;;;;;;;;;;;;5029112;28;19925;-67
2023/05/01 02:51:11;;;;;;;;;;;;;;;;;;5033822;28;20035;-67
2023/05/01 02:53:39;;;;;;;;;;;;;;;;;;5028998;28;19971;-67
2023/05/01 02:56:16;;;;;;;;;;;;;;;;;;5031208;28;19925;-67
2023/05/01 02:58:43;;;;;;;;;;;;;;;;;;5032195;28;20300;-67
2023/05/01 03:01:11;;;;;;;;;;;;;;;;;;5033411;28;20473;-67
2023/05/01 03:03:38;;;;;;;;;;;;;;;;;;5028493;28;19924;-67
2023/05/01 03:06:05;;;;;;;;;;;;;;;;;;5036283;28;19924;-67
2023/05/01 03:08:32;;;;;;;;;;;;;;;;;;5028423;28;19975;-67
2023/05/01 03:10:59;;;;;;;;;;;;;;;;;;5033808;28;19928;-67
2023/05/01 03:13:26;;;;;;;;;;;;;;;;;;5035223;28;20024;-68
2023/05/01 03:15:53;;;;;;;;;;;;;;;;;;5030910;28;19979;-67
2023/05/01 03:18:21;;;;;;;;;;;;;;;;;;5036885;28;20473;-68
2023/05/01 03:20:48;;;;;;;;;;;;;;;;;;5027477;28;19925;-67
2023/05/01 03:23:15;;;;;;;;;;;;;;;;;;5033386;28;19925;-67
2023/05/01 03:25:42;;;;;;;;;;;;;;;;;;5036169;28;19925;-67
2023/05/01 03:28:09;;;;;;;;;;;;;;;;;;5033963;28;19978;-67
2023/05/01 03:30:36;;;;;;;;;;;;;;;;;;5036877;28;20338;-67
2023/05/01 03:33:03;;;;;;;;;;;;;;;;;;5034547;28;19925;-67
2023/05/01 03:35:32;;;;;;;;;;;;;;;;;;5033626;28;19942;-67
2023/05/01 03:37:59;;;;;;;;;;;;;;;;;;5032295;28;19924;-66
2023/05/01 03:40:45;;;;;;;;;;;;;;;;;;5045061;28;19931;-67
2023/05/01 03:43:31;;;;;;;;;;;;;;;;;;5046391;28;20031;-66
2023/05/01 03:45:59;;;;;;;;;;;;;;;;;;5029571;28;20304;-67
2023/05/01 03:48:26;;;;;;;;;;;;;;;;;;5036310;28;19924;-66
2023/05/01 03:50:53;;;;;;;;;;;;;;;;;;5036049;28;20307;-66
2023/05/01 03:53:21;;;;;;;;;;;;;;;;;;5032432;28;19933;-65
2023/05/01 03:55:48;;;;;;;;;;;;;;;;;;5034907;28;20392;-67
2023/05/01 03:58:15;;;;;;;;;;;;;;;;;;5029942;28;19937;-67
2023/05/01 04:00:42;;;;;;;;;;;;;;;;;;5035046;28;19974;-66
2023/05/01 04:03:09;;;;;;;;;;;;;;;;;;5033054;28;20388;-67
2023/05/01 04:05:38;;;;;;;;;;;;;;;;;;5052317;28;19931;-66
2023/05/01 04:08:06;;;;;;;;;;;;;;;;;;5031079;28;19925;-67
2023/05/01 04:10:33;;;;;;;;;;;;;;;;;;5035886;28;19936;-67
2023/05/01 04:13:05;;;;;;;;;;;;;;;;;;5050999;28;20402;-67
2023/05/01 04:15:32;;;;;;;;;;;;;;;;;;5035802;28;20368;-67
2023/05/01 04:18:00;;;;;;;;;;;;;;;;;;5052423;28;20388;-66
2023/05/01 04:20:27;;;;;;;;;;;;;;;;;;5032502;28;19982;-66
2023/05/01 04:22:54;;;;;;;;;;;;;;;;;;5025882;28;19925;-67
2023/05/01 04:25:21;;;;;;;;;;;;;;;;;;5035596;28;19925;-67
2023/05/01 04:27:50;;;;;;;;;;;;;;;;;;5031296;28;19928;-66
2023/05/01 04:30:18;;;;;;;;;;;;;;;;;;5035548;28;20010;-67
2023/05/01 04:32:45;;;;;;;;;;;;;;;;;;5031345;28;19986;-67
2023/05/01 04:35:12;;;;;;;;;;;;;;;;;;5030658;28;19925;-66
2023/05/01 04:37:43;;;;;;;;;;;;;;;;;;5031222;28;19965;-67
2023/05/01 04:40:10;;;;;;;;;;;;;;;;;;5035314;28;19929;-67
2023/05/01 04:42:37;;;;;;;;;;;;;;;;;;5035276;28;19931;-67
2023/05/01 04:45:04;;;;;;;;;;;;;;;;;;5030854;28;19944;-66
2023/05/01 04:47:35;;;;;;;;;;;;;;;;;;5033516;28;20411;-67
2023/05/01 04:50:02;;;;;;;;;;;;;;;;;;5035017;28;20343;-71
2023/05/01 04:52:30;;;;;;;;;;;;;;;;;;5032809;28;19925;-68
2023/05/01 04:54:59;;;;;;;;;;;;;;;;;;5028266;28;19925;-68
2023/05/01 04:57:29;;;;;;;;;;;;;;;;;;5035230;28;19925;-68
2023/05/01 04:59:56;;;;;;;;;;;;;;;;;;5033474;28;20370;-66
2023/05/01 05:02:23;;;;;;;;;;;;;;;;;;5023410;28;20023;-68
2023/05/01 05:04:52;;;;;;;;;;;;;;;;;;5019640;28;19975;-67
2023/05/01 05:07:19;;;;;;;;;;;;;;;;;;5028519;28;19945;-68
2023/05/01 05:10:19;;;;;;;;;;;;;;;;;;5029213;28;20312;-68
2023/05/01 05:12:54;;;;;;;;;;;;;;;;;;5049140;28;20503;-68
2023/05/01 05:15:21;;;;;;;;;;;;;;;;;;5034630;28;19929;-67
2023/05/01 05:17:48;;;;;;;;;;;;;;;;;;5031496;28;19975;-67
2023/05/01 05:20:16;;;;;;;;;;;;;;;;;;5031229;28;19925;-68
2023/05/01 05:22:43;;;;;;;;;;;;;;;;;;5029535;28;19924;-67
2023/05/01 05:25:21;;;;;;;;;;;;;;;;;;5025077;28;20407;-68
2023/05/01 05:27:48;;;;;;;;;;;;;;;;;;5025970;28;19971;-67
2023/05/01 05:30:15;;;;;;;;;;;;;;;;;;5027952;28;19924;-67
2023/05/01 05:32:43;;;;;;;;;;;;;;;;;;5028884;28;19925;-67
2023/05/01 05:35:11;;;;;;;;;;;;;;;;;;5029073;28;19935;-68
2023/05/01 05:37:38;;;;;;;;;;;;;;;;;;5021304;28;19925;-66
2023/05/01 05:40:05;;;;;;;;;;;;;;;;;;5028760;28;19933;-67
2023/05/01 05:42:39;;;;;;;;;;;;;;;;;;5027200;28;19932;-67
2023/05/01 05:45:07;;;;;;;;;;;;;;;;;;5026187;28;19925;-67
2023/05/01 05:47:34;;;;;;;;;;;;;;;;;;5027591;28;20019;-68
2023/05/01 05:50:01;;;;;;;;;;;;;;;;;;5023000;28;19925;-67
2023/05/01 05:52:28;;;;;;;;;;;;;;;;;;5029115;28;20039;-64
2023/05/01 05:54:56;;;;;;;;;;;;;;;;;;5023217;28;20415;-68
2023/05/01 05:57:23;;;;;;;;;;;;;;;;;;5027126;28;20313;-69
2023/05/01 05:59:51;;;;;;;;;;;;;;;;;;5024818;28;19931;-66
2023/05/01 06:02:22;;;;;;;;;;;;;;;;;;5031003;28;19932;-72
2023/05/01 06:04:49;;;;;;;;;;;;;;;;;;5028310;28;19925;-69
2023/05/01 06:07:18;;;;;;;;;;;;;;;;;;5027297;28;20012;-69
2023/05/01 06:09:46;;;;;;;;;;;;;;;;;;5022999;28;19936;-69
2023/05/01 06:12:13;;;;;;;;;;;;;;;;;;5024777;28;20360;-69
2023/05/01 06:14:40;;;;;;;;;;;;;;;;;;5033558;28;20020;-69
2023/05/01 06:17:07;;;;;;;;;;;;;;;;;;5024622;28;19925;-69
2023/05/01 06:19:34;;;;;;;;;;;;;;;;;;5031767;28;19925;-66
2023/05/01 06:22:08;;;;;;;;;;;;;;;;;;5029180;28;19924;-65
2023/05/01 06:24:41;;;;;;;;;;;;;;;;;;5021033;28;19935;-66
2023/05/01 06:27:10;;;;;;;;;;;;;;;;;;5032483;28;19936;-66
2023/05/01 06:29:37;;;;;;;;;;;;;;;;;;5031544;28;20414;-73
2023/05/01 06:32:04;;;;;;;;;;;;;;;;;;5034388;28;19932;-69
2023/05/01 06:34:32;;;;;;;;;;;;;;;;;;5030299;28;19933;-68
2023/05/01 06:36:59;;;;;;;;;;;;;;;;;;5030999;28;19931;-68
2023/05/01 06:39:27;;;;;;;;;;;;;;;;;;5030174;28;19975;-68
2023/05/01 06:41:54;;;;;;;;;;;;;;;;;;5025316;28;19932;-68
2023/05/01 06:44:30;;;;;;;;;;;;;;;;;;5024758;28;19925;-68
2023/05/01 06:47:00;;;;;;;;;;;;;;;;;;5025177;28;19925;-69
2023/05/01 06:49:27;;;;;;;;;;;;;;;;;;5024121;28;19925;-69
2023/05/01 06:51:54;;;;;;;;;;;;;;;;;;5031424;28;20020;-69
2023/05/01 06:54:21;;;;;;;;;;;;;;;;;;5022627;28;19956;-68
2023/05/01 06:56:49;;;;;;;;;;;;;;;;;;5022313;28;19963;-68
2023/05/01 06:59:16;;;;;;;;;;;;;;;;;;5028849;28;19933;-68
2023/05/01 07:01:43;;;;;;;;;;;;;;;;;;5024774;28;19928;-68
2023/05/01 07:04:10;;;;;;;;;;;;;;;;;;5030740;28;19972;-68
2023/05/01 07:06:37;;;;;;;;;;;;;;;;;;5033165;28;19925;-69
2023/05/01 07:09:04;;;;;;;;;;;;;;;;;;5027229;28;19925;-68
2023/05/01 07:11:31;;;;;;;;;;;;;;;;;;5032092;28;20002;-69
2023/05/01 07:13:58;;;;;;;;;;;;;;;;;;5051801;28;19998;-69
2023/05/01 07:16:25;;;;;;;;;;;;;;;;;;5033056;28;19979;-69
2023/05/01 07:18:52;;;;;;;;;;;;;;;;;;5033323;28;19928;-68
2023/05/01 07:21:19;;;;;;;;;;;;;;;;;;5029859;28;19932;-68
2023/05/01 07:23:47;;;;;;;;;;;;;;;;;;5032577;28;19924;-68
2023/05/01 07:26:14;;;;;;;;;;;;;;;;;;5028344;28;20454;-68
2023/05/01 07:28:41;;;;;;;;;;;;;;;;;;5032130;28;19932;-69
2023/05/01 07:31:08;;;;;;;;;;;;;;;;;;5033849;28;19931;-68
2023/05/01 07:33:35;;;;;;;;;;;;;;;;;;5036513;28;19975;-68
2023/05/01 07:36:03;;;;;;;;;;;;;;;;;;5033989;28;20293;-69
2023/05/01 07:38:30;;;;;;;;;;;;;;;;;;5036535;28;19924;-69
2023/05/01 07:40:57;;;;;;;;;;;;;;;;;;5028294;28;19925;-69
2023/05/01 07:43:24;;;;;;;;;;;;;;;;;;5041975;28;20450;-70
2023/05/01 07:45:51;;;;;;;;;;;;;;;;;;5024391;28;19925;-69
2023/05/01 07:48:18;;;;;;;;;;;;;;;;;;5022453;28;20393;-69
2023/05/01 07:50:45;;;;;;;;;;;;;;;;;;5019563;28;19940;-69
2023/05/01 07:53:12;;;;;;;;;;;;;;;;;;5022831;28;19936;-69
2023/05/01 07:55:40;;;;;;;;;;;;;;;;;;5025452;28;19983;-69
2023/05/01 07:58:07;;;;;;;;;;;;;;;;;;5020203;28;19933;-69
2023/05/01 08:00:34;;;;;;;;;;;;;;;;;;5022222;28;20304;-69
2023/05/01 08:03:01;;;;;;;;;;;;;;;;;;5025298;28;19925;-69
2023/05/01 08:05:30;;;;;;;;;;;;;;;;;;5024243;28;19924;-69
2023/05/01 08:07:57;;;;;;;;;;;;;;;;;;5029331;28;19925;-69
2023/05/01 08:10:24;;;;;;;;;;;;;;;;;;5034993;28;19925;-69
2023/05/01 08:12:51;;;;;;;;;;;;;;;;;;5019343;28;20315;-69
2023/05/01 08:15:19;;;;;;;;;;;;;;;;;;5026468;28;19925;-70
2023/05/01 08:17:47;;;;;;;;;;;;;;;;;;5042084;28;19925;-69
2023/05/01 08:20:14;;;;;;;;;;;;;;;;;;5027852;28;19929;-68
2023/05/01 08:22:41;;;;;;;;;;;;;;;;;;5035435;28;20027;-69
2023/05/01 08:25:08;;;;;;;;;;;;;;;;;;5031685;28;19968;-68
2023/05/01 08:27:35;;;;;;;;;;;;;;;;;;5030756;28;19925;-69
2023/05/01 08:30:02;;;;;;;;;;;;;;;;;;5035277;28;20015;-68
2023/05/01 08:32:29;;;;;;;;;;;;;;;;;;5034982;28;20020;-68
2023/05/01 08:34:56;;;;;;;;;;;;;;;;;;5034845;28;19925;-69
2023/05/01 08:37:23;;;;;;;;;;;;;;;;;;5031594;28;19925;-70
2023/05/01 08:39:50;;;;;;;;;;;;;;;;;;5030893;28;19924;-69
2023/05/01 08:42:17;;;;;;;;;;;;;;;;;;5033106;28;20021;-69
2023/05/01 08:44:44;;;;;;;;;;;;;;;;;;5034215;28;19932;-70
2023/05/01 08:47:12;;;;;;;;;;;;;;;;;;5032337;28;19968;-68
2023/05/01 08:49:39;;;;;;;;;;;;;;;;;;5028758;28;19988;-67
2023/05/01 08:52:06;;;;;;;;;;;;;;;;;;5051208;28;19929;-67
2023/05/01 08:54:33;;;;;;;;;;;;;;;;;;5035074;28;19987;-69
2023/05/01 08:57:02;;;;;;;;;;;;;;;;;;5051520;28;20462;-69
2023/05/01 08:59:30;;;;;;;;;;;;;;;;;;5029031;28;20324;-68
2023/05/01 09:01:57;;;;;;;;;;;;;;;;;;5030598;28;19924;-69
2023/05/01 09:04:24;;;;;;;;;;;;;;;;;;5033088;28;19932;-69
2023/05/01 09:06:51;;;;;;;;;;;;;;;;;;5027990;28;20357;-69
2023/05/01 09:09:18;;;;;;;;;;;;;;;;;;5021548;28;19979;-69
2023/05/01 09:11:45;;;;;;;;;;;;;;;;;;5022136;28;20032;-69
2023/05/01 09:14:12;;;;;;;;;;;;;;;;;;5022796;28;19987;-69
2023/05/01 09:16:39;;;;;;;;;;;;;;;;;;5022913;28;19979;-69
2023/05/01 09:19:06;;;;;;;;;;;;;;;;;;5017363;28;20001;-70
2023/05/01 09:21:33;;;;;;;;;;;;;;;;;;5019847;28;19925;-69
2023/05/01 09:24:01;;;;;;;;;;;;;;;;;;5019502;28;20356;-69
2023/05/01 09:26:28;;;;;;;;;;;;;;;;;;5017838;28;19932;-68
2023/05/01 09:28:56;;;;;;;;;;;;;;;;;;5022241;28;19925;-69
2023/05/01 09:31:24;;;;;;;;;;;;;;;;;;5016889;28;19929;-70
2023/05/01 09:33:51;;;;;;;;;;;;;;;;;;5015913;28;20315;-71
2023/05/01 09:36:18;;;;;;;;;;;;;;;;;;5013729;28;20016;-69
2023/05/01 09:38:46;;;;;;;;;;;;;;;;;;5020713;28;19978;-70
2023/05/01 09:41:13;;;;;;;;;;;;;;;;;;5028561;28;19932;-70
2023/05/01 09:43:40;;;;;;;;;;;;;;;;;;5019903;28;19978;-69
2023/05/01 09:46:08;;;;;;;;;;;;;;;;;;5022657;28;19924;-70
2023/05/01 09:48:36;;;;;;;;;;;;;;;;;;5022858;28;19933;-69
2023/05/01 09:51:03;;;;;;;;;;;;;;;;;;5027919;28;19929;-69
2023/05/01 09:53:30;;;;;;;;;;;;;;;;;;5032512;28;19959;-69
2023/05/01 09:55:57;;;;;;;;;;;;;;;;;;5023555;28;19925;-69
2023/05/01 09:58:25;;;;;;;;;;;;;;;;;;5023965;28;19986;-69
2023/05/01 10:00:52;;;;;;;;;;;;;;;;;;5019966;28;19925;-69
2023/05/01 10:03:19;;;;;;;;;;;;;;;;;;5016732;28;20355;-69
2023/05/01 10:05:46;;;;;;;;;;;;;;;;;;5015187;28;19925;-69
2023/05/01 10:08:14;;;;;;;;;;;;;;;;;;5021509;28;19925;-69
2023/05/01 10:10:42;;;;;;;;;;;;;;;;;;5017919;28;19931;-69
2023/05/01 10:13:09;;;;;;;;;;;;;;;;;;5018558;28;19929;-69
2023/05/01 10:15:36;;;;;;;;;;;;;;;;;;5022343;28;19925;-69
2023/05/01 10:18:03;;;;;;;;;;;;;;;;;;5035700;28;19925;-69
2023/05/01 10:20:31;;;;;;;;;;;;;;;;;;5022484;28;20020;-69
2023/05/01 10:22:58;;;;;;;;;;;;;;;;;;5016141;28;19979;-69
2023/05/01 10:25:25;;;;;;;;;;;;;;;;;;5023407;28;19968;-69
2023/05/01 10:27:52;;;;;;;;;;;;;;;;;;5014674;28;19925;-70
2023/05/01 10:30:19;;;;;;;;;;;;;;;;;;5025572;28;19924;-69
2023/05/01 10:32:47;;;;;;;;;;;;;;;;;;5013185;28;20000;-69
2023/05/01 10:35:14;;;;;;;;;;;;;;;;;;5014255;28;20032;-69
2023/05/01 10:37:41;;;;;;;;;;;;;;;;;;5021047;28;19931;-70
2023/05/01 10:40:08;;;;;;;;;;;;;;;;;;5018609;28;20388;-69
2023/05/01 10:42:35;;;;;;;;;;;;;;;;;;5020454;28;20030;-70
2023/05/01 10:45:02;;;;;;;;;;;;;;;;;;5022636;28;20469;-70
2023/05/01 10:47:30;;;;;;;;;;;;;;;;;;5021547;28;20384;-70
2023/05/01 10:49:57;;;;;;;;;;;;;;;;;;5020370;28;20004;-70
2023/05/01 10:52:24;;;;;;;;;;;;;;;;;;5016827;28;20335;-70
2023/05/01 10:54:51;;;;;;;;;;;;;;;;;;5017043;28;19975;-69
2023/05/01 10:57:18;;;;;;;;;;;;;;;;;;5018536;28;19948;-74
2023/05/01 10:59:45;;;;;;;;;;;;;;;;;;5020410;28;19925;-68
2023/05/01 11:02:12;;;;;;;;;;;;;;;;;;5016893;28;19933;-71
2023/05/01 11:04:40;;;;;;;;;;;;;;;;;;5011779;28;19988;-70
2023/05/01 11:07:07;;;;;;;;;;;;;;;;;;5027441;28;19929;-70
2023/05/01 11:09:34;;;;;;;;;;;;;;;;;;5027385;28;19924;-69
2023/05/01 11:12:01;;;;;;;;;;;;;;;;;;5018015;28;20392;-70
2023/05/01 11:14:28;;;;;;;;;;;;;;;;;;5025494;28;19924;-77
2023/05/01 11:16:56;;;;;;;;;;;;;;;;;;5022826;28;19925;-84
2023/05/01 11:19:23;;;;;;;;;;;;;;;;;;5021467;28;19932;-73
2023/05/01 11:21:50;;;;;;;;;;;;;;;;;;5019960;28;19983;-72
2023/05/01 11:24:17;;;;;;;;;;;;;;;;;;5020383;28;19932;-73
2023/05/01 11:26:44;;;;;;;;;;;;;;;;;;5022186;28;20016;-71
2023/05/01 11:29:11;;;;;;;;;;;;;;;;;;5041158;28;19975;-73
2023/05/01 11:31:38;;;;;;;;;;;;;;;;;;5015587;28;19960;-72
2023/05/01 11:34:06;;;;;;;;;;;;;;;;;;5023465;28;19925;-72
2023/05/01 11:36:33;;;;;;;;;;;;;;;;;;5024067;28;19928;-71
2023/05/01 11:39:00;;;;;;;;;;;;;;;;;;5015564;28;19933;-71
2023/05/01 11:41:28;;;;;;;;;;;;;;;;;;5027619;28;19956;-72
2023/05/01 11:43:55;;;;;;;;;;;;;;;;;;5032200;28;19925;-72
2023/05/01 11:46:22;;;;;;;;;;;;;;;;;;5018678;28;19972;-73
2023/05/01 11:48:49;;;;;;;;;;;;;;;;;;5022452;28;19925;-71
2023/05/01 11:51:17;;;;;;;;;;;;;;;;;;5036020;28;19971;-71
2023/05/01 11:53:45;;;;;;;;;;;;;;;;;;5021046;28;19925;-71
2023/05/01 11:56:12;;;;;;;;;;;;;;;;;;5025588;28;19960;-71
2023/05/01 11:58:39;;;;;;;;;;;;;;;;;;5028163;28;20372;-71
2023/05/01 12:01:06;;;;;;;;;;;;;;;;;;5023758;28;20400;-72
2023/05/01 12:03:33;;;;;;;;;;;;;;;;;;5029767;28;19964;-71
2023/05/01 12:06:00;;;;;;;;;;;;;;;;;;5032362;28;19929;-71
2023/05/01 12:08:27;;;;;;;;;;;;;;;;;;5016211;28;19929;-72
2023/05/01 12:10:55;;;;;;;;;;;;;;;;;;5022786;28;19974;-71
2023/05/01 12:13:22;;;;;;;;;;;;;;;;;;5026000;28;19925;-70
2023/05/01 12:15:49;;;;;;;;;;;;;;;;;;5014827;28;19998;-71
2023/05/01 12:18:16;;;;;;;;;;;;;;;;;;5022788;28;19975;-70
2023/05/01 12:20:43;;;;;;;;;;;;;;;;;;5029955;28;19929;-70
2023/05/01 12:23:10;;;;;;;;;;;;;;;;;;5025278;28;19929;-69
2023/05/01 12:25:38;;;;;;;;;;;;;;;;;;5024515;28;20288;-71
2023/05/01 12:28:05;;;;;;;;;;;;;;;;;;5015646;28;19925;-71
2023/05/01 12:30:32;;;;;;;;;;;;;;;;;;5017123;28;19933;-71
2023/05/01 12:32:59;;;;;;;;;;;;;;;;;;5038326;28;19925;-70
2023/05/01 12:35:26;;;;;;;;;;;;;;;;;;5022923;28;19925;-70
2023/05/01 12:37:53;;;;;;;;;;;;;;;;;;5033243;28;19924;-65
2023/05/01 12:40:21;;;;;;;;;;;;;;;;;;5026174;28;19925;-73
2023/05/01 12:42:48;;;;;;;;;;;;;;;;;;5019051;28;19928;-76
2023/05/01 12:45:15;;;;;;;;;;;;;;;;;;5026873;28;20341;-73
2023/05/01 12:47:43;;;;;;;;;;;;;;;;;;5023550;28;19931;-74
2023/05/01 12:50:10;;;;;;;;;;;;;;;;;;5027919;28;19929;-73
2023/05/01 12:52:37;;;;;;;;;;;;;;;;;;5023549;28;19987;-71
2023/05/01 12:55:04;;;;;;;;;;;;;;;;;;5024568;28;20380;-71
2023/05/01 12:57:31;;;;;;;;;;;;;;;;;;5026402;28;19960;-71
2023/05/01 12:59:58;;;;;;;;;;;;;;;;;;5026611;28;19929;-71
2023/05/01 13:02:25;;;;;;;;;;;;;;;;;;5025616;28;20380;-71
2023/05/01 13:04:52;;;;;;;;;;;;;;;;;;5020382;28;19925;-70
2023/05/01 13:07:19;;;;;;;;;;;;;;;;;;5018357;28;19929;-69
2023/05/01 13:09:47;;;;;;;;;;;;;;;;;;5017080;28;19929;-70
2023/05/01 13:12:14;;;;;;;;;;;;;;;;;;5019132;28;19932;-70
2023/05/01 13:14:41;;;;;;;;;;;;;;;;;;5015173;28;19997;-71
2023/05/01 13:17:08;;;;;;;;;;;;;;;;;;5015036;28;19979;-71
2023/05/01 13:19:37;;;;;;;;;;;;;;;;;;5018769;28;20295;-71
2023/05/01 13:22:04;;;;;;;;;;;;;;;;;;5015333;28;20324;-71
2023/05/01 13:24:31;;;;;;;;;;;;;;;;;;5019754;28;19975;-71
2023/05/01 13:27:01;;;;;;;;;;;;;;;;;;5026427;28;19929;-71
2023/05/01 13:29:29;;;;;;;;;;;;;;;;;;5017015;28;19929;-71
2023/05/01 13:31:56;;;;;;;;;;;;;;;;;;5020066;28;19925;-71
2023/05/01 13:34:23;;;;;;;;;;;;;;;;;;5014489;28;19932;-71
2023/05/01 13:36:51;;;;;;;;;;;;;;;;;;5015309;28;19924;-71
2023/05/01 13:39:18;;;;;;;;;;;;;;;;;;5019321;28;19924;-70
2023/05/01 13:41:45;;;;;;;;;;;;;;;;;;5014650;28;20459;-71
2023/05/01 13:44:12;;;;;;;;;;;;;;;;;;5034719;28;19975;-70
2023/05/01 13:46:39;;;;;;;;;;;;;;;;;;5031528;28;19972;-70
2023/05/01 13:49:06;;;;;;;;;;;;;;;;;;5027343;28;19925;-70
2023/05/01 13:51:36;;;;;;;;;;;11.60;99.90;;;;;;5018622;28;19976;-70
2023/05/01 13:54:06;;;;;;;;;;;11.80;99.90;;;;;;5025771;28;20407;-70
2023/05/01 13:56:34;;;;;;;;;;;11.60;99.90;;;;;;5022301;28;19933;-70
2023/05/01 13:59:01;;;;;;;;;;;11.40;99.90;;;;;;5027004;28;19924;-70
2023/05/01 14:01:27;;;;;;;;;;;11.50;99.90;;;;;;5021807;28;19925;-70
2023/05/01 14:03:55;;;;;;;;;;;11.60;99.90;;;;;;5028117;28;19924;-70
2023/05/01 14:06:23;;;;;;;;;;;11.70;99.90;;;;;;5028895;28;19925;-70
2023/05/01 14:08:53;;;;;;;;;;;11.90;99.90;;;;;;5026602;28;19924;-71
2023/05/01 14:11:20;;;;;;;;;;;12.30;99.90;;;;;;5016442;28;19936;-74
2023/05/01 14:13:48;;;;;;;;;;;12.80;99.90;;;;;;5026292;28;19972;-75
2023/05/01 14:16:20;;;;;;;;;;;13.70;99.90;;;;;;5026412;28;20411;-73
2023/05/01 14:18:47;;;;;;;;;;;14.40;99.90;;;;;;5016589;28;19925;-74
2023/05/01 14:21:14;;;;;;;;;;;;;;;;;;5019224;28;19926;-71
2023/05/01 14:23:41;;;;;;;;;;;;;;;;;;5018554;28;19932;-70
2023/05/01 14:26:10;;;;;;;;;;;15.70;99.90;;;;;;5018683;28;19930;-70
2023/05/01 14:28:37;;;;;;;;;;;;;;;;;;5037411;28;19925;-69
2023/05/01 14:31:04;;;;;;;;;;;15.90;99.90;;;;;;5023605;28;19933;-70
2023/05/01 14:33:32;;;;;;;;;;;16.00;99.90;;;;;;5016690;28;19991;-70
2023/05/01 14:35:59;;;;;;;;;;;16.10;99.90;;;;;;5031373;28;19929;-74
2023/05/01 14:38:26;;;;;;;;;;;15.80;99.90;;;;;;5020014;28;19932;-69
2023/05/01 14:40:53;;;;;;;;;;;15.80;99.90;;;;;;5014399;28;19931;-70
2023/05/01 14:43:21;;;;;;;;;;;16.00;99.90;;;;;;5018715;28;19929;-70
2023/05/01 14:45:48;;;;;;;;;;;16.10;99.90;;;;;;5023412;28;20023;-68
2023/05/01 14:48:20;;;;;;;;;;;16.30;99.90;;;;;;5027656;28;20500;-69
2023/05/01 14:50:47;;;;;;;;;;;16.20;99.90;;;;;;5021980;28;19991;-69
2023/05/01 14:53:14;;;;;;;;;;;;;;;;;;5028852;28;19925;-69
2023/05/01 14:55:41;;;;;;;;;;;16.20;99.90;;;;;;5022134;28;19986;-69
2023/05/01 14:58:08;;;;;;;;;;;16.00;99.90;;;;;;5024735;28;19975;-68
2023/05/01 15:00:36;;;;;;;;;;;16.00;99.90;;;;;;5045601;28;20331;-68
2023/05/01 15:03:03;;;;;;;;;;;16.20;99.90;;;;;;5048445;28;19925;-68
2023/05/01 15:05:30;;;;;;;;;;;16.00;99.90;;;;;;5036330;28;19928;-69
2023/05/01 15:07:59;;;;;;;;;;;16.10;99.90;;;;;;5030062;28;19925;-72
2023/05/01 15:10:27;;;;;;;;;;;16.30;99.90;;;;;;5023148;28;19958;-74
2023/05/01 15:12:54;;;;;;;;;;;16.20;99.90;;;;;;5029216;28;19925;-72
2023/05/01 15:15:21;;;;;;;;;;;16.10;99.90;;;;;;5038790;28;19925;-70
2023/05/01 15:17:49;;;;;;;;;;;15.40;99.90;;;;;;5028147;28;19925;-69
2023/05/01 15:20:16;;;;;;;;;;;15.30;99.90;;;;;;5028075;28;19925;-68
2023/05/01 15:22:42;;;;;;;;;;;15.30;99.90;;;;;;5021256;28;19925;-68
2023/05/01 15:25:09;;;;;;;;;;;15.20;99.90;;;;;;5023505;28;19979;-69
2023/05/01 15:27:36;;;;;;;;;;;15.30;99.90;;;;;;5024665;28;20382;-68
2023/05/01 15:30:04;;;;;;;;;;;15.20;99.90;;;;;;5023523;28;20384;-69
2023/05/01 15:32:30;;;;;;;;;;;15.30;99.90;;;;;;5019110;28;19931;-69
2023/05/01 15:34:59;;;;;;;;;;;15.20;99.90;;;;;;5026534;28;20356;-69
2023/05/01 15:37:25;;;;;;;;;;;15.00;99.90;;;;;;5026540;28;19932;-69
2023/05/01 15:39:52;;;;;;;;;;;14.90;99.90;;;;;;5025907;28;19929;-70
2023/05/01 15:42:19;;;;;;;;;;;14.80;99.90;;;;;;5027325;28;19995;-70
2023/05/01 15:44:46;;;;;;;;;;;14.80;99.90;;;;;;5042068;28;19925;-68
2023/05/01 15:47:13;;;;;;;;;;;14.70;99.90;;;;;;5029403;28;19925;-73
2023/05/01 15:49:40;;;;;;;;;;;14.70;99.90;;;;;;5030626;28;19925;-70
2023/05/01 15:52:08;;;;;;;;;;;14.60;99.90;;;;;;5029431;28;20336;-74
2023/05/01 15:54:35;;;;;;;;;;;14.60;99.90;;;;;;5031253;28;19932;-72
2023/05/01 15:57:02;;;;;;;;;;;14.60;99.90;;;;;;5029961;28;20020;-75
2023/05/01 15:59:29;;;;;;;;;;;14.60;99.90;;;;;;5024879;28;19925;-71
2023/05/01 16:01:56;;;;;;;;;;;14.70;99.90;;;;;;5031782;28;19931;-72
2023/05/01 16:04:23;;;;;;;;;;;14.80;99.90;;;;;;5029189;28;19979;-68
2023/05/01 16:06:50;;;;;;;;;;;14.80;99.90;;;;;;5024589;28;20004;-68
2023/05/01 16:09:19;;;;;;;;;;;14.80;99.90;;;;;;5040354;28;20381;-68
2023/05/01 16:11:45;;;;;;;;;;;14.80;99.90;;;;;;5026959;28;20358;-69
2023/05/01 16:14:12;;;;;;;;;;;;;;;;;;5031164;28;19925;-68
2023/05/01 16:16:41;;;;;;;;;;;14.60;99.90;;;;;;5023116;28;20461;-68
2023/05/01 16:19:07;;;;;;;;;;;14.60;99.90;;;;;;5021667;28;19986;-68
2023/05/01 16:21:36;;;;;;;;;;;14.70;99.90;;;;;;5022102;28;19929;-69
2023/05/01 16:24:04;;;;;;;;;;;14.50;99.90;;;;;;5025952;28;19925;-68